Tuesday, January 23, 2018, 7:25 AM EST
Back to Local

KOWD, Norwood Memorial Airport

Location: Norwood, MA, United States Lat: 42.183
Local Time: 7:25 AM EST (12:25 GMT) Lon: -71.167
Time Zone: US/Eastern Elev: 49 ft

Show me the last for .
Show Decoded

2018-01-23 06:53 METAR KOWD 231153Z AUTO 05003KT 1/2SM FG VV002 02/02 A2996 RMK AO2 SLP146 60000
                 70009 T00220017 10050 20022 56027 =
2018-01-23 05:53 METAR KOWD 231053Z AUTO 00000KT 1/2SM FG VV002 02/02 A2997 RMK AO2 SLP150
                 T00220022 =
2018-01-23 04:53 METAR KOWD 230953Z AUTO 00000KT 1/2SM FG VV002 03/03 A3001 RMK AO2 UPB38E50
                 SLP162 P0000 T00280028 =
2018-01-23 03:53 METAR KOWD 230853Z AUTO 33004KT 3/4SM BR OVC002 03/02 A3004 RMK AO2 SLP173
                 T00280022 58021 =
2018-01-23 02:53 METAR KOWD 230753Z AUTO 33003KT 3/4SM BR OVC002 03/02 A3007 RMK AO2 SLP183
                 T00330022 =
2018-01-23 02:20 METAR KOWD 230720Z AUTO 00000KT 3/4SM BR OVC002 05/04 A3010 RMK AO2 T00500044 =
2018-01-23 02:01 METAR KOWD 230701Z AUTO 04003KT 1SM BR OVC002 04/04 A3010 RMK AO2 T00440039 =
2018-01-23 01:53 METAR KOWD 230653Z AUTO 00000KT 1SM BR OVC003 05/04 A3010 RMK AO2 SLP193
                 T00500039 =
2018-01-23 01:49 METAR KOWD 230649Z AUTO 00000KT 1 1/4SM BR OVC003 05/04 A3010 RMK AO2 =
2018-01-23 01:37 METAR KOWD 230637Z AUTO 03003KT 1SM BR OVC002 05/04 A3011 RMK AO2 T00500039 =
2018-01-23 00:53 METAR KOWD 230553Z AUTO 00000KT 3/4SM BR OVC002 04/04 A3013 RMK AO2 SLP204 60001
                 T00440039 10044 20033 56010 =
2018-01-23 00:37 METAR KOWD 230537Z AUTO 00000KT 1SM BR OVC002 04/04 A3013 RMK AO2 T00440039 =
2018-01-23 00:24 METAR KOWD 230524Z AUTO 00000KT 3/4SM BR OVC002 04/04 A3013 RMK AO2 T00440039 =
2018-01-22 23:53 METAR KOWD 230453Z AUTO 00000KT 1SM BR OVC002 04/03 A3014 RMK AO2 SLP206
                 T00440033 400501006 =
2018-01-22 23:50 METAR KOWD 230450Z AUTO 01003KT 1SM BR OVC002 04/03 A3014 RMK AO2 =
2018-01-22 23:09 METAR KOWD 230409Z AUTO 00000KT 1 1/2SM BR OVC003 04/03 A3016 RMK AO2 T00440033
                 =
2018-01-22 22:53 METAR KOWD 230353Z AUTO 00000KT 1/2SM FG OVC003 04/03 A3016 RMK AO2 RAB29E51
                 SLP214 P0000 T00390028 =
2018-01-22 22:31 METAR KOWD 230331Z AUTO 00000KT 1/2SM -RA FG OVC004 04/03 A3018 RMK AO2 RAB29
                 P0000 T00390033 =
2018-01-22 22:14 METAR KOWD 230314Z AUTO 00000KT 1 1/2SM BR OVC004 04/03 A3019 RMK AO2 T00390033
                 =
2018-01-22 22:06 METAR KOWD 230306Z AUTO 00000KT 2SM BR OVC004 04/03 A3019 RMK AO2 T00390033 =
2018-01-22 21:49 METAR KOWD 230249Z AUTO 00000KT 3/4SM BR OVC004 04/03 A3019 RMK AO2 RAB11E34
                 SLP225 P0000 60001 T00390028 58019 =
2018-01-22 21:48 METAR KOWD 230248Z AUTO 00000KT 3/4SM BR OVC004 04/03 A3019 RMK AO2 RAB11E34
                 P0000 =
2018-01-22 21:00 METAR KOWD 230200Z AUTO 00000KT 2SM BR OVC004 04/03 A3021 RMK AO2 T00390033 =
2018-01-22 20:53 METAR KOWD 230153Z AUTO 00000KT 2 1/2SM BR OVC005 04/03 A3022 RMK AO2 RAB0055E44
                 SLP233 P0001 T00390033 =
2018-01-22 20:26 METAR KOWD 230126Z AUTO 03003KT 2SM -RA BR OVC005 04/03 A3022 RMK AO2 RAB0055
                 CIG 003V008 P0001 T00440033 =
2018-01-22 19:53 METAR KOWD 230053Z 06005KT 1 3/4SM BR OVC008 04/03 A3024 RMK AO2 CIG 006V011
                 SLP241 T00440028 =
2018-01-22 19:46 METAR KOWD 230046Z 08003KT 1 3/4SM BR OVC009 04/03 A3024 RMK AO2 CIG 006V011
                 T00440028 =
2018-01-22 19:36 METAR KOWD 230036Z 00000KT 2SM BR OVC009 04/03 A3025 RMK AO2 CIG 006V012
                 T00440033 =
2018-01-22 19:08 METAR KOWD 230008Z 00000KT 2 1/2SM BR OVC012 04/03 A3025 RMK AO2 T00440033 =
2018-01-22 18:53 METAR KOWD 222353Z 07003KT 4SM BR FEW005 OVC013 04/03 A3025 RMK AO2 SLP245 60000
                 T00440033 10044 20039 58003 =
2018-01-22 18:23 METAR KOWD 222323Z 03004KT 6SM BR SCT004 OVC013 04/03 A3026 RMK AO2 T00440033 =
2018-01-22 18:01 METAR KOWD 222301Z 05004KT 4SM BR OVC004 04/03 A3026 RMK AO2 T00440033 =
2018-01-22 17:53 METAR KOWD 222253Z 07004KT 4SM BR OVC005 04/03 A3026 RMK AO2 SLP247 T00440033 =
2018-01-22 17:34 METAR KOWD 222234Z 04003KT 4SM BR BKN006 OVC016 04/03 A3027 RMK AO2 T00440028 =
2018-01-22 17:26 METAR KOWD 222226Z 03003KT 4SM BR SCT006 OVC017 04/03 A3027 RMK AO2 T00440028 =
2018-01-22 16:53 METAR KOWD 222153Z 04004KT 4SM BR OVC017 04/03 A3026 RMK AO2 RAB24E42 SLP247
                 P0000 T00440028 =
2018-01-22 16:42 METAR KOWD 222142Z 04004KT 4SM BR OVC017 04/03 A3025 RMK AO2 RAB24E42 P0000
                 T00440028 =
2018-01-22 16:30 METAR KOWD 222130Z 06005KT 2 1/2SM -RA BR FEW007 OVC018 04/03 A3025 RMK AO2
                 RAB24 P0000 T00440028 =
2018-01-22 15:53 METAR KOWD 222053Z 04003KT 3SM BR FEW007 BKN015 OVC020 04/03 A3026 RMK AO2
                 SLP247 T00440028 55004 =
2018-01-22 15:46 METAR KOWD 222046Z 05005KT 3SM BR BKN015 OVC020 04/03 A3026 RMK AO2 T00440028 =
2018-01-22 15:32 METAR KOWD 222032Z 00000KT 2 1/2SM BR OVC015 04/02 A3026 RMK AO2 T00440022 =
2018-01-22 15:23 METAR KOWD 222023Z 00000KT 2 1/2SM BR OVC014 04/03 A3026 RMK AO2 T00440028 =
2018-01-22 15:02 METAR KOWD 222002Z 05003KT 3SM BR OVC014 04/03 A3025 RMK AO2 T00440028 =
2018-01-22 14:53 METAR KOWD 221953Z 06003KT 2 1/2SM BR OVC014 04/03 A3025 RMK AO2 SLP243
                 T00440028 =
2018-01-22 14:49 METAR KOWD 221949Z 06003KT 2 1/2SM BR OVC014 04/03 A3025 RMK AO2 =
2018-01-22 14:30 METAR KOWD 221930Z 05005KT 1 3/4SM BR OVC013 04/03 A3025 RMK AO2 T00390028 =
2018-01-22 14:13 METAR KOWD 221913Z 06005KT 2SM BR OVC010 04/03 A3026 RMK AO2 T00390028 =
2018-01-22 13:53 METAR KOWD 221853Z 02004KT 1 3/4SM BR OVC010 04/03 A3027 RMK AO2 SLP252
                 T00390028 =
2018-01-22 13:49 METAR KOWD 221849Z 02004KT 1 3/4SM BR OVC010 04/03 A3027 RMK AO2 =
2018-01-22 12:53 METAR KOWD 221753Z 04005KT 1 1/2SM BR OVC005 04/03 A3025 RMK AO2 SLP245 60008
                 T00440033 10050 20017 55015 =
2018-01-22 12:11 METAR KOWD 221711Z 36003KT 1 1/2SM BR BKN005 OVC014 05/03 A3026 RMK AO2
                 T00500033 =
2018-01-22 11:53 METAR KOWD 221653Z 09004KT 1SM BR FEW005 OVC016 04/03 A3025 RMK AO2 RAE47 PRESFR
                 SLP244 P0002 T00440033 =
2018-01-22 11:50 METAR KOWD 221650Z 08003KT 1SM BR FEW005 OVC016 04/03 A3025 RMK AO2 RAE47 PRESFR
                 P0002 =
2018-01-22 10:53 METAR KOWD 221553Z 00000KT 1SM -RA BR OVC011 04/03 A3029 RMK AO2 SLP256 P0001
                 T00390028 =
2018-01-22 10:32 METAR KOWD 221532Z 00000KT 2SM -RA BR BKN010 OVC015 03/03 A3030 RMK AO2 P0001
                 T00330028 =
2018-01-22 09:53 METAR KOWD 221453Z 00000KT 2 1/2SM -RA BR BKN019 OVC024 03/02 A3030 RMK AO2
                 SLP260 BCFG P0003 60005 T00330022 53027 =
2018-01-22 09:00 METAR KOWD 221400Z 00000KT 2 1/2SM -RA BR OVC019 03/02 A3027 RMK AO2 P0000
                 T00280017 =
2018-01-22 08:53 METAR KOWD 221353Z 00000KT 3SM -RA BR OVC021 03/02 A3027 RMK AO2 SLP251
                 RAB1254E20B50 P0002 T00280017 =
2018-01-22 07:53 METAR KOWD 221253Z COR 00000KT 3SM -RA BR OVC023 02/01 A3024 RMK AO2 UPB52
                 SLP241 P0000 T00220011 =

Support USWX by starting your Amazon purchase here.